sensor_id;sensor_type;location;lat;lon;timestamp;P1;durP1;ratioP1;P2;durP2;ratioP2
791;SDS011;379;49.022;12.148;2024-02-16T00:00:08;1.70;;;1.60;;
791;SDS011;379;49.022;12.148;2024-02-16T00:02:37;1.00;;;0.87;;
791;SDS011;379;49.022;12.148;2024-02-16T00:05:04;1.33;;;1.23;;
791;SDS011;379;49.022;12.148;2024-02-16T00:07:32;2.13;;;1.73;;
791;SDS011;379;49.022;12.148;2024-02-16T00:09:59;3.60;;;1.47;;
791;SDS011;379;49.022;12.148;2024-02-16T00:12:26;3.90;;;2.50;;
791;SDS011;379;49.022;12.148;2024-02-16T00:14:54;1.20;;;0.97;;
791;SDS011;379;49.022;12.148;2024-02-16T00:17:21;1.10;;;1.00;;
791;SDS011;379;49.022;12.148;2024-02-16T00:19:47;1.17;;;1.07;;
791;SDS011;379;49.022;12.148;2024-02-16T00:22:14;1.20;;;1.10;;
791;SDS011;379;49.022;12.148;2024-02-16T00:24:41;1.57;;;1.47;;
791;SDS011;379;49.022;12.148;2024-02-16T00:27:08;1.03;;;0.67;;
791;SDS011;379;49.022;12.148;2024-02-16T00:29:35;2.73;;;2.53;;
791;SDS011;379;49.022;12.148;2024-02-16T00:32:04;1.00;;;0.80;;
791;SDS011;379;49.022;12.148;2024-02-16T00:34:32;1.87;;;1.67;;
791;SDS011;379;49.022;12.148;2024-02-16T00:36:59;2.50;;;2.30;;
791;SDS011;379;49.022;12.148;2024-02-16T00:39:26;1.27;;;0.97;;
791;SDS011;379;49.022;12.148;2024-02-16T00:41:53;0.80;;;0.80;;
791;SDS011;379;49.022;12.148;2024-02-16T00:44:20;1.07;;;0.83;;
791;SDS011;379;49.022;12.148;2024-02-16T00:46:47;1.47;;;1.00;;
791;SDS011;379;49.022;12.148;2024-02-16T00:49:15;2.13;;;1.37;;
791;SDS011;379;49.022;12.148;2024-02-16T00:51:42;2.00;;;0.97;;
791;SDS011;379;49.022;12.148;2024-02-16T00:54:08;1.33;;;1.20;;
791;SDS011;379;49.022;12.148;2024-02-16T00:56:35;1.93;;;1.73;;
791;SDS011;379;49.022;12.148;2024-02-16T00:59:02;1.40;;;1.10;;
791;SDS011;379;49.022;12.148;2024-02-16T01:01:28;1.77;;;1.40;;
791;SDS011;379;49.022;12.148;2024-02-16T01:03:55;1.47;;;0.80;;
791;SDS011;379;49.022;12.148;2024-02-16T01:06:23;1.83;;;1.37;;
791;SDS011;379;49.022;12.148;2024-02-16T01:08:50;1.67;;;0.83;;
791;SDS011;379;49.022;12.148;2024-02-16T01:11:17;1.00;;;0.77;;
791;SDS011;379;49.022;12.148;2024-02-16T01:13:45;2.37;;;2.17;;
791;SDS011;379;49.022;12.148;2024-02-16T01:16:12;2.07;;;1.40;;
791;SDS011;379;49.022;12.148;2024-02-16T01:18:39;1.70;;;1.60;;
791;SDS011;379;49.022;12.148;2024-02-16T01:21:06;1.77;;;1.53;;
791;SDS011;379;49.022;12.148;2024-02-16T01:23:35;1.67;;;1.57;;
791;SDS011;379;49.022;12.148;2024-02-16T01:26:02;2.30;;;1.43;;
791;SDS011;379;49.022;12.148;2024-02-16T01:28:28;1.40;;;1.30;;
791;SDS011;379;49.022;12.148;2024-02-16T01:30:55;1.77;;;1.53;;
791;SDS011;379;49.022;12.148;2024-02-16T01:33:22;2.00;;;1.27;;
791;SDS011;379;49.022;12.148;2024-02-16T01:35:49;0.97;;;0.90;;
791;SDS011;379;49.022;12.148;2024-02-16T01:38:16;1.93;;;1.50;;
791;SDS011;379;49.022;12.148;2024-02-16T01:40:44;2.90;;;2.70;;
791;SDS011;379;49.022;12.148;2024-02-16T01:43:10;1.87;;;1.70;;
791;SDS011;379;49.022;12.148;2024-02-16T01:45:37;1.97;;;1.77;;
791;SDS011;379;49.022;12.148;2024-02-16T01:48:04;1.00;;;0.90;;
791;SDS011;379;49.022;12.148;2024-02-16T01:50:31;3.83;;;1.80;;
791;SDS011;379;49.022;12.148;2024-02-16T01:52:58;2.00;;;1.57;;
791;SDS011;379;49.022;12.148;2024-02-16T01:55:25;1.23;;;1.13;;
791;SDS011;379;49.022;12.148;2024-02-16T01:57:54;2.23;;;1.83;;
791;SDS011;379;49.022;12.148;2024-02-16T02:00:21;1.80;;;1.40;;
791;SDS011;379;49.022;12.148;2024-02-16T02:02:48;1.77;;;1.27;;
791;SDS011;379;49.022;12.148;2024-02-16T02:05:15;2.20;;;1.93;;
791;SDS011;379;49.022;12.148;2024-02-16T02:07:42;2.33;;;1.30;;
791;SDS011;379;49.022;12.148;2024-02-16T02:10:08;1.30;;;1.10;;
791;SDS011;379;49.022;12.148;2024-02-16T02:12:37;4.63;;;0.70;;
791;SDS011;379;49.022;12.148;2024-02-16T02:15:06;1.53;;;1.30;;
791;SDS011;379;49.022;12.148;2024-02-16T02:17:33;2.20;;;1.80;;
791;SDS011;379;49.022;12.148;2024-02-16T02:20:00;1.50;;;1.40;;
791;SDS011;379;49.022;12.148;2024-02-16T02:22:29;1.70;;;1.60;;
791;SDS011;379;49.022;12.148;2024-02-16T02:24:55;3.77;;;2.60;;
791;SDS011;379;49.022;12.148;2024-02-16T02:27:22;1.10;;;1.00;;
791;SDS011;379;49.022;12.148;2024-02-16T02:29:49;1.80;;;1.70;;
791;SDS011;379;49.022;12.148;2024-02-16T02:32:16;2.23;;;1.33;;
791;SDS011;379;49.022;12.148;2024-02-16T02:34:43;1.40;;;1.27;;
791;SDS011;379;49.022;12.148;2024-02-16T02:37:09;2.63;;;2.40;;
791;SDS011;379;49.022;12.148;2024-02-16T02:39:37;1.93;;;1.77;;
791;SDS011;379;49.022;12.148;2024-02-16T02:42:05;3.13;;;1.60;;
791;SDS011;379;49.022;12.148;2024-02-16T02:44:33;3.23;;;2.37;;
791;SDS011;379;49.022;12.148;2024-02-16T02:47:00;2.30;;;1.80;;
791;SDS011;379;49.022;12.148;2024-02-16T02:49:27;1.83;;;1.40;;
791;SDS011;379;49.022;12.148;2024-02-16T02:51:53;2.03;;;1.10;;
791;SDS011;379;49.022;12.148;2024-02-16T02:54:20;2.20;;;2.00;;
791;SDS011;379;49.022;12.148;2024-02-16T02:56:48;4.00;;;2.60;;
791;SDS011;379;49.022;12.148;2024-02-16T02:59:15;0.90;;;0.60;;
791;SDS011;379;49.022;12.148;2024-02-16T03:01:41;2.80;;;1.40;;
791;SDS011;379;49.022;12.148;2024-02-16T03:04:08;4.33;;;1.50;;
791;SDS011;379;49.022;12.148;2024-02-16T03:06:35;2.23;;;0.97;;
791;SDS011;379;49.022;12.148;2024-02-16T03:09:02;2.83;;;1.70;;
791;SDS011;379;49.022;12.148;2024-02-16T03:11:29;1.63;;;1.37;;
791;SDS011;379;49.022;12.148;2024-02-16T03:13:57;1.63;;;1.37;;
791;SDS011;379;49.022;12.148;2024-02-16T03:16:23;1.37;;;1.27;;
791;SDS011;379;49.022;12.148;2024-02-16T03:18:50;2.20;;;1.93;;
791;SDS011;379;49.022;12.148;2024-02-16T03:21:17;1.47;;;1.07;;
791;SDS011;379;49.022;12.148;2024-02-16T03:23:44;4.57;;;2.07;;
791;SDS011;379;49.022;12.148;2024-02-16T03:26:14;2.53;;;1.93;;
791;SDS011;379;49.022;12.148;2024-02-16T03:28:43;3.50;;;1.10;;
791;SDS011;379;49.022;12.148;2024-02-16T03:31:15;2.70;;;1.30;;
791;SDS011;379;49.022;12.148;2024-02-16T03:33:43;1.40;;;1.30;;
791;SDS011;379;49.022;12.148;2024-02-16T03:36:09;1.60;;;1.30;;
791;SDS011;379;49.022;12.148;2024-02-16T03:38:37;3.60;;;2.63;;
791;SDS011;379;49.022;12.148;2024-02-16T03:41:04;2.00;;;1.37;;
791;SDS011;379;49.022;12.148;2024-02-16T03:43:31;2.20;;;1.33;;
791;SDS011;379;49.022;12.148;2024-02-16T03:45:58;2.70;;;1.83;;
791;SDS011;379;49.022;12.148;2024-02-16T03:48:26;1.93;;;1.70;;
791;SDS011;379;49.022;12.148;2024-02-16T03:50:52;2.27;;;1.70;;
791;SDS011;379;49.022;12.148;2024-02-16T03:53:19;2.20;;;1.27;;
791;SDS011;379;49.022;12.148;2024-02-16T03:55:46;2.27;;;2.07;;
791;SDS011;379;49.022;12.148;2024-02-16T03:58:13;1.63;;;1.23;;
791;SDS011;379;49.022;12.148;2024-02-16T04:00:39;3.27;;;1.70;;
791;SDS011;379;49.022;12.148;2024-02-16T04:03:06;1.40;;;0.97;;
791;SDS011;379;49.022;12.148;2024-02-16T04:05:35;2.03;;;1.77;;
791;SDS011;379;49.022;12.148;2024-02-16T04:08:05;1.97;;;1.83;;
791;SDS011;379;49.022;12.148;2024-02-16T04:10:32;2.33;;;2.10;;
791;SDS011;379;49.022;12.148;2024-02-16T04:12:59;9.53;;;2.83;;
791;SDS011;379;49.022;12.148;2024-02-16T04:15:25;2.50;;;1.90;;
791;SDS011;379;49.022;12.148;2024-02-16T04:17:52;2.03;;;1.83;;
791;SDS011;379;49.022;12.148;2024-02-16T04:20:19;2.20;;;1.30;;
791;SDS011;379;49.022;12.148;2024-02-16T04:22:47;1.17;;;1.03;;
791;SDS011;379;49.022;12.148;2024-02-16T04:25:14;2.07;;;0.97;;
791;SDS011;379;49.022;12.148;2024-02-16T04:27:41;1.40;;;0.77;;
791;SDS011;379;49.022;12.148;2024-02-16T04:30:08;2.83;;;2.63;;
791;SDS011;379;49.022;12.148;2024-02-16T04:32:35;2.93;;;2.10;;
791;SDS011;379;49.022;12.148;2024-02-16T04:35:02;1.20;;;0.90;;
791;SDS011;379;49.022;12.148;2024-02-16T04:37:30;3.10;;;2.47;;
791;SDS011;379;49.022;12.148;2024-02-16T04:39:58;3.90;;;2.10;;
791;SDS011;379;49.022;12.148;2024-02-16T04:42:24;1.40;;;0.90;;
791;SDS011;379;49.022;12.148;2024-02-16T04:44:51;0.97;;;0.87;;
791;SDS011;379;49.022;12.148;2024-02-16T04:47:18;2.07;;;1.90;;
791;SDS011;379;49.022;12.148;2024-02-16T04:49:45;2.40;;;1.83;;
791;SDS011;379;49.022;12.148;2024-02-16T04:52:11;2.70;;;2.20;;
791;SDS011;379;49.022;12.148;2024-02-16T04:54:38;2.37;;;1.77;;
791;SDS011;379;49.022;12.148;2024-02-16T04:57:07;2.90;;;2.70;;
791;SDS011;379;49.022;12.148;2024-02-16T04:59:34;1.83;;;1.73;;
791;SDS011;379;49.022;12.148;2024-02-16T05:02:00;1.47;;;0.73;;
791;SDS011;379;49.022;12.148;2024-02-16T05:04:28;2.43;;;1.80;;
791;SDS011;379;49.022;12.148;2024-02-16T05:06:55;4.70;;;2.73;;
791;SDS011;379;49.022;12.148;2024-02-16T05:09:22;3.23;;;1.30;;
791;SDS011;379;49.022;12.148;2024-02-16T05:11:51;2.43;;;2.23;;
791;SDS011;379;49.022;12.148;2024-02-16T05:14:19;2.10;;;1.20;;
791;SDS011;379;49.022;12.148;2024-02-16T05:16:47;1.20;;;1.10;;
791;SDS011;379;49.022;12.148;2024-02-16T05:19:13;7.03;;;1.30;;
791;SDS011;379;49.022;12.148;2024-02-16T05:21:40;1.60;;;1.37;;
791;SDS011;379;49.022;12.148;2024-02-16T05:24:07;1.73;;;1.30;;
791;SDS011;379;49.022;12.148;2024-02-16T05:26:33;1.53;;;0.90;;
791;SDS011;379;49.022;12.148;2024-02-16T05:29:00;0.90;;;0.80;;
791;SDS011;379;49.022;12.148;2024-02-16T05:31:29;2.13;;;1.70;;
791;SDS011;379;49.022;12.148;2024-02-16T05:33:56;2.30;;;1.90;;
791;SDS011;379;49.022;12.148;2024-02-16T05:36:23;3.80;;;2.23;;
791;SDS011;379;49.022;12.148;2024-02-16T05:38:52;0.90;;;0.73;;
791;SDS011;379;49.022;12.148;2024-02-16T05:41:20;1.17;;;1.00;;
791;SDS011;379;49.022;12.148;2024-02-16T05:43:47;1.50;;;1.40;;
791;SDS011;379;49.022;12.148;2024-02-16T05:46:14;1.30;;;1.07;;
791;SDS011;379;49.022;12.148;2024-02-16T05:48:43;3.87;;;2.20;;
791;SDS011;379;49.022;12.148;2024-02-16T05:51:10;2.50;;;2.03;;
791;SDS011;379;49.022;12.148;2024-02-16T05:53:38;0.93;;;0.80;;
791;SDS011;379;49.022;12.148;2024-02-16T05:56:06;2.07;;;1.80;;
791;SDS011;379;49.022;12.148;2024-02-16T05:58:35;2.17;;;2.07;;
791;SDS011;379;49.022;12.148;2024-02-16T06:01:01;2.80;;;1.87;;
791;SDS011;379;49.022;12.148;2024-02-16T06:03:28;2.00;;;1.37;;
791;SDS011;379;49.022;12.148;2024-02-16T06:05:56;2.80;;;2.57;;
791;SDS011;379;49.022;12.148;2024-02-16T06:08:23;2.70;;;2.40;;
791;SDS011;379;49.022;12.148;2024-02-16T06:10:50;2.47;;;2.20;;
791;SDS011;379;49.022;12.148;2024-02-16T06:13:19;1.60;;;1.50;;
791;SDS011;379;49.022;12.148;2024-02-16T06:15:47;4.30;;;3.07;;
791;SDS011;379;49.022;12.148;2024-02-16T06:18:14;1.33;;;1.23;;
791;SDS011;379;49.022;12.148;2024-02-16T06:20:40;2.97;;;2.63;;
791;SDS011;379;49.022;12.148;2024-02-16T06:23:09;1.93;;;0.80;;
791;SDS011;379;49.022;12.148;2024-02-16T06:25:36;7.40;;;3.20;;
791;SDS011;379;49.022;12.148;2024-02-16T06:28:03;0.70;;;0.70;;
791;SDS011;379;49.022;12.148;2024-02-16T06:30:30;3.30;;;2.00;;
791;SDS011;379;49.022;12.148;2024-02-16T06:32:56;3.47;;;3.30;;
791;SDS011;379;49.022;12.148;2024-02-16T06:35:23;5.33;;;3.30;;
791;SDS011;379;49.022;12.148;2024-02-16T06:37:50;0.80;;;0.80;;
791;SDS011;379;49.022;12.148;2024-02-16T06:40:18;2.13;;;2.03;;
791;SDS011;379;49.022;12.148;2024-02-16T06:42:46;4.97;;;1.83;;
791;SDS011;379;49.022;12.148;2024-02-16T06:45:12;2.37;;;2.07;;
791;SDS011;379;49.022;12.148;2024-02-16T06:47:39;1.43;;;1.33;;
791;SDS011;379;49.022;12.148;2024-02-16T06:50:06;2.00;;;1.57;;
791;SDS011;379;49.022;12.148;2024-02-16T06:52:33;2.23;;;2.03;;
791;SDS011;379;49.022;12.148;2024-02-16T06:55:00;1.90;;;1.80;;
791;SDS011;379;49.022;12.148;2024-02-16T06:57:28;2.50;;;2.30;;
791;SDS011;379;49.022;12.148;2024-02-16T06:59:56;8.23;;;2.80;;
791;SDS011;379;49.022;12.148;2024-02-16T07:02:23;5.30;;;2.97;;
791;SDS011;379;49.022;12.148;2024-02-16T07:04:50;2.13;;;1.80;;
791;SDS011;379;49.022;12.148;2024-02-16T07:07:17;5.77;;;3.43;;
791;SDS011;379;49.022;12.148;2024-02-16T07:09:44;5.20;;;3.07;;
791;SDS011;379;49.022;12.148;2024-02-16T07:12:10;4.10;;;3.13;;
791;SDS011;379;49.022;12.148;2024-02-16T07:14:39;3.97;;;3.40;;
791;SDS011;379;49.022;12.148;2024-02-16T07:17:06;2.20;;;2.00;;
791;SDS011;379;49.022;12.148;2024-02-16T07:19:34;6.40;;;4.27;;
791;SDS011;379;49.022;12.148;2024-02-16T07:22:01;4.30;;;2.80;;
791;SDS011;379;49.022;12.148;2024-02-16T07:24:28;4.03;;;3.60;;
791;SDS011;379;49.022;12.148;2024-02-16T07:26:55;3.37;;;3.07;;
791;SDS011;379;49.022;12.148;2024-02-16T07:29:23;2.03;;;1.83;;
791;SDS011;379;49.022;12.148;2024-02-16T07:31:51;5.13;;;4.30;;
791;SDS011;379;49.022;12.148;2024-02-16T07:34:18;4.40;;;4.00;;
791;SDS011;379;49.022;12.148;2024-02-16T07:36:45;3.13;;;2.93;;
791;SDS011;379;49.022;12.148;2024-02-16T07:39:12;6.10;;;2.87;;
791;SDS011;379;49.022;12.148;2024-02-16T07:41:39;5.53;;;3.07;;
791;SDS011;379;49.022;12.148;2024-02-16T07:44:06;5.30;;;2.43;;
791;SDS011;379;49.022;12.148;2024-02-16T07:46:32;2.80;;;1.83;;
791;SDS011;379;49.022;12.148;2024-02-16T07:49:06;1.70;;;1.60;;
791;SDS011;379;49.022;12.148;2024-02-16T07:51:35;2.93;;;2.37;;
791;SDS011;379;49.022;12.148;2024-02-16T07:54:03;3.57;;;3.27;;
791;SDS011;379;49.022;12.148;2024-02-16T07:56:31;5.23;;;3.03;;
791;SDS011;379;49.022;12.148;2024-02-16T07:58:57;3.83;;;1.87;;
791;SDS011;379;49.022;12.148;2024-02-16T08:01:25;4.17;;;3.63;;
791;SDS011;379;49.022;12.148;2024-02-16T08:03:52;8.07;;;4.00;;
791;SDS011;379;49.022;12.148;2024-02-16T08:06:20;5.53;;;4.93;;
791;SDS011;379;49.022;12.148;2024-02-16T08:08:51;5.67;;;4.20;;
791;SDS011;379;49.022;12.148;2024-02-16T08:11:18;4.60;;;4.20;;
791;SDS011;379;49.022;12.148;2024-02-16T08:13:45;8.20;;;5.23;;
791;SDS011;379;49.022;12.148;2024-02-16T08:16:12;6.30;;;3.83;;
791;SDS011;379;49.022;12.148;2024-02-16T08:18:39;6.37;;;4.57;;
791;SDS011;379;49.022;12.148;2024-02-16T08:21:06;4.83;;;3.47;;
791;SDS011;379;49.022;12.148;2024-02-16T08:23:34;4.60;;;3.43;;
791;SDS011;379;49.022;12.148;2024-02-16T08:26:00;3.77;;;2.50;;
791;SDS011;379;49.022;12.148;2024-02-16T08:28:27;6.27;;;4.77;;
791;SDS011;379;49.022;12.148;2024-02-16T08:30:54;7.87;;;5.90;;
791;SDS011;379;49.022;12.148;2024-02-16T08:33:20;8.10;;;5.17;;
791;SDS011;379;49.022;12.148;2024-02-16T08:35:47;5.73;;;3.80;;
791;SDS011;379;49.022;12.148;2024-02-16T08:38:15;10.27;;;5.13;;
791;SDS011;379;49.022;12.148;2024-02-16T08:40:43;7.27;;;5.40;;
791;SDS011;379;49.022;12.148;2024-02-16T08:43:11;7.53;;;4.83;;
791;SDS011;379;49.022;12.148;2024-02-16T08:45:38;3.10;;;2.10;;
791;SDS011;379;49.022;12.148;2024-02-16T08:48:06;5.10;;;4.03;;
791;SDS011;379;49.022;12.148;2024-02-16T08:50:33;3.07;;;2.87;;
791;SDS011;379;49.022;12.148;2024-02-16T08:53:00;7.30;;;4.33;;
791;SDS011;379;49.022;12.148;2024-02-16T08:55:26;6.00;;;3.67;;
791;SDS011;379;49.022;12.148;2024-02-16T08:57:54;9.00;;;4.20;;
791;SDS011;379;49.022;12.148;2024-02-16T09:00:22;7.60;;;3.80;;
791;SDS011;379;49.022;12.148;2024-02-16T09:02:52;6.67;;;5.70;;
791;SDS011;379;49.022;12.148;2024-02-16T09:05:20;8.10;;;7.27;;
791;SDS011;379;49.022;12.148;2024-02-16T09:07:46;8.57;;;4.33;;
791;SDS011;379;49.022;12.148;2024-02-16T09:10:13;4.70;;;3.70;;
791;SDS011;379;49.022;12.148;2024-02-16T09:12:40;8.77;;;5.23;;
791;SDS011;379;49.022;12.148;2024-02-16T09:15:09;3.70;;;3.40;;
791;SDS011;379;49.022;12.148;2024-02-16T09:17:36;4.57;;;3.83;;
791;SDS011;379;49.022;12.148;2024-02-16T09:20:04;7.37;;;4.83;;
791;SDS011;379;49.022;12.148;2024-02-16T09:22:33;8.87;;;5.07;;
791;SDS011;379;49.022;12.148;2024-02-16T09:25:01;2.73;;;2.50;;
791;SDS011;379;49.022;12.148;2024-02-16T09:27:28;5.97;;;3.83;;
791;SDS011;379;49.022;12.148;2024-02-16T09:29:54;6.93;;;5.07;;
791;SDS011;379;49.022;12.148;2024-02-16T09:32:23;5.33;;;3.90;;
791;SDS011;379;49.022;12.148;2024-02-16T09:34:49;5.13;;;3.93;;
791;SDS011;379;49.022;12.148;2024-02-16T09:37:17;4.50;;;3.50;;
791;SDS011;379;49.022;12.148;2024-02-16T09:39:43;2.53;;;2.37;;
791;SDS011;379;49.022;12.148;2024-02-16T09:42:10;3.57;;;3.27;;
791;SDS011;379;49.022;12.148;2024-02-16T09:44:39;3.87;;;3.57;;
791;SDS011;379;49.022;12.148;2024-02-16T09:47:07;3.70;;;3.07;;
791;SDS011;379;49.022;12.148;2024-02-16T09:49:38;4.30;;;3.87;;
791;SDS011;379;49.022;12.148;2024-02-16T09:52:05;6.00;;;3.23;;
791;SDS011;379;49.022;12.148;2024-02-16T09:54:36;7.30;;;5.53;;
791;SDS011;379;49.022;12.148;2024-02-16T09:57:03;4.80;;;4.33;;
791;SDS011;379;49.022;12.148;2024-02-16T09:59:30;4.50;;;4.10;;
791;SDS011;379;49.022;12.148;2024-02-16T10:02:00;4.83;;;2.90;;
791;SDS011;379;49.022;12.148;2024-02-16T10:04:28;3.70;;;3.13;;
791;SDS011;379;49.022;12.148;2024-02-16T10:06:56;2.67;;;2.47;;
791;SDS011;379;49.022;12.148;2024-02-16T10:09:23;4.90;;;2.77;;
791;SDS011;379;49.022;12.148;2024-02-16T10:11:51;6.60;;;2.47;;
791;SDS011;379;49.022;12.148;2024-02-16T10:14:17;3.73;;;3.23;;
791;SDS011;379;49.022;12.148;2024-02-16T10:16:45;4.43;;;2.83;;
791;SDS011;379;49.022;12.148;2024-02-16T10:19:13;7.33;;;3.23;;
791;SDS011;379;49.022;12.148;2024-02-16T10:21:40;6.23;;;3.80;;
791;SDS011;379;49.022;12.148;2024-02-16T10:24:08;5.43;;;4.20;;
791;SDS011;379;49.022;12.148;2024-02-16T10:26:39;3.60;;;2.87;;
791;SDS011;379;49.022;12.148;2024-02-16T10:29:07;3.37;;;3.13;;
791;SDS011;379;49.022;12.148;2024-02-16T10:31:35;7.20;;;5.37;;
791;SDS011;379;49.022;12.148;2024-02-16T10:34:02;3.77;;;3.07;;
791;SDS011;379;49.022;12.148;2024-02-16T10:36:31;4.37;;;3.90;;
791;SDS011;379;49.022;12.148;2024-02-16T10:38:59;3.40;;;2.80;;
791;SDS011;379;49.022;12.148;2024-02-16T10:41:32;5.87;;;4.73;;
791;SDS011;379;49.022;12.148;2024-02-16T10:44:00;4.40;;;3.40;;
791;SDS011;379;49.022;12.148;2024-02-16T10:46:28;4.37;;;3.70;;
791;SDS011;379;49.022;12.148;2024-02-16T10:48:55;3.03;;;2.40;;
791;SDS011;379;49.022;12.148;2024-02-16T10:51:23;10.13;;;5.10;;
791;SDS011;379;49.022;12.148;2024-02-16T10:53:56;5.70;;;3.23;;
791;SDS011;379;49.022;12.148;2024-02-16T10:56:26;7.13;;;2.73;;
791;SDS011;379;49.022;12.148;2024-02-16T10:58:55;4.67;;;3.47;;
791;SDS011;379;49.022;12.148;2024-02-16T11:01:27;3.13;;;2.63;;
791;SDS011;379;49.022;12.148;2024-02-16T11:04:00;3.53;;;2.93;;
791;SDS011;379;49.022;12.148;2024-02-16T11:06:28;5.17;;;4.17;;
791;SDS011;379;49.022;12.148;2024-02-16T11:09:00;3.90;;;3.30;;
791;SDS011;379;49.022;12.148;2024-02-16T11:11:32;4.03;;;2.30;;
791;SDS011;379;49.022;12.148;2024-02-16T11:14:02;4.80;;;3.57;;
791;SDS011;379;49.022;12.148;2024-02-16T11:16:29;4.00;;;2.87;;
791;SDS011;379;49.022;12.148;2024-02-16T11:18:56;3.43;;;3.13;;
791;SDS011;379;49.022;12.148;2024-02-16T11:21:23;4.80;;;2.57;;
791;SDS011;379;49.022;12.148;2024-02-16T11:23:50;6.10;;;3.27;;
791;SDS011;379;49.022;12.148;2024-02-16T11:26:17;5.20;;;2.93;;
791;SDS011;379;49.022;12.148;2024-02-16T11:28:44;1.90;;;1.60;;
791;SDS011;379;49.022;12.148;2024-02-16T11:31:13;4.77;;;3.30;;
791;SDS011;379;49.022;12.148;2024-02-16T11:33:43;3.50;;;3.20;;
791;SDS011;379;49.022;12.148;2024-02-16T11:36:10;5.17;;;3.57;;
791;SDS011;379;49.022;12.148;2024-02-16T11:38:37;3.77;;;3.47;;
791;SDS011;379;49.022;12.148;2024-02-16T11:41:04;3.00;;;2.40;;
791;SDS011;379;49.022;12.148;2024-02-16T11:43:33;4.53;;;4.10;;
791;SDS011;379;49.022;12.148;2024-02-16T11:46:10;3.63;;;3.03;;
791;SDS011;379;49.022;12.148;2024-02-16T11:48:39;3.30;;;2.17;;
791;SDS011;379;49.022;12.148;2024-02-16T11:51:06;3.53;;;2.80;;
791;SDS011;379;49.022;12.148;2024-02-16T11:53:33;2.50;;;2.23;;
791;SDS011;379;49.022;12.148;2024-02-16T11:55:59;3.97;;;3.00;;
791;SDS011;379;49.022;12.148;2024-02-16T11:58:26;1.60;;;1.50;;
791;SDS011;379;49.022;12.148;2024-02-16T12:00:54;5.73;;;3.03;;
791;SDS011;379;49.022;12.148;2024-02-16T12:03:24;4.67;;;3.37;;
791;SDS011;379;49.022;12.148;2024-02-16T12:05:54;2.60;;;2.40;;
791;SDS011;379;49.022;12.148;2024-02-16T12:08:22;4.70;;;2.80;;
791;SDS011;379;49.022;12.148;2024-02-16T12:10:50;2.73;;;2.00;;
791;SDS011;379;49.022;12.148;2024-02-16T12:13:17;1.80;;;1.70;;
791;SDS011;379;49.022;12.148;2024-02-16T12:15:45;2.77;;;2.13;;
791;SDS011;379;49.022;12.148;2024-02-16T12:18:18;2.67;;;2.47;;
791;SDS011;379;49.022;12.148;2024-02-16T12:20:57;4.50;;;4.10;;
791;SDS011;379;49.022;12.148;2024-02-16T12:23:24;2.10;;;1.80;;
791;SDS011;379;49.022;12.148;2024-02-16T12:25:51;3.90;;;3.40;;
791;SDS011;379;49.022;12.148;2024-02-16T12:28:18;3.10;;;1.83;;
791;SDS011;379;49.022;12.148;2024-02-16T12:30:45;4.70;;;4.10;;
791;SDS011;379;49.022;12.148;2024-02-16T12:33:12;4.13;;;2.57;;
791;SDS011;379;49.022;12.148;2024-02-16T12:35:39;4.00;;;2.10;;
791;SDS011;379;49.022;12.148;2024-02-16T12:38:07;6.33;;;3.53;;
791;SDS011;379;49.022;12.148;2024-02-16T12:40:34;6.07;;;3.90;;
791;SDS011;379;49.022;12.148;2024-02-16T12:43:00;3.80;;;2.33;;
791;SDS011;379;49.022;12.148;2024-02-16T12:45:27;3.03;;;2.20;;
791;SDS011;379;49.022;12.148;2024-02-16T12:47:54;4.90;;;3.40;;
791;SDS011;379;49.022;12.148;2024-02-16T12:50:20;4.40;;;4.00;;
791;SDS011;379;49.022;12.148;2024-02-16T12:52:47;2.30;;;2.10;;
791;SDS011;379;49.022;12.148;2024-02-16T12:55:15;3.37;;;2.83;;
791;SDS011;379;49.022;12.148;2024-02-16T12:57:43;6.57;;;2.13;;
791;SDS011;379;49.022;12.148;2024-02-16T13:00:10;2.97;;;2.77;;
791;SDS011;379;49.022;12.148;2024-02-16T13:02:38;4.50;;;2.97;;
791;SDS011;379;49.022;12.148;2024-02-16T13:05:04;3.57;;;2.23;;
791;SDS011;379;49.022;12.148;2024-02-16T13:07:33;2.53;;;2.30;;
791;SDS011;379;49.022;12.148;2024-02-16T13:09:59;4.83;;;3.10;;
791;SDS011;379;49.022;12.148;2024-02-16T13:12:29;6.23;;;2.73;;
791;SDS011;379;49.022;12.148;2024-02-16T13:14:56;4.97;;;2.97;;
791;SDS011;379;49.022;12.148;2024-02-16T13:17:23;4.60;;;2.70;;
791;SDS011;379;49.022;12.148;2024-02-16T13:19:51;3.60;;;1.90;;
791;SDS011;379;49.022;12.148;2024-02-16T13:22:18;3.27;;;2.97;;
791;SDS011;379;49.022;12.148;2024-02-16T13:24:44;5.60;;;3.60;;
791;SDS011;379;49.022;12.148;2024-02-16T13:27:11;3.97;;;3.10;;
791;SDS011;379;49.022;12.148;2024-02-16T13:29:39;3.40;;;3.10;;
791;SDS011;379;49.022;12.148;2024-02-16T13:32:06;3.63;;;3.13;;
791;SDS011;379;49.022;12.148;2024-02-16T13:34:33;3.13;;;2.27;;
791;SDS011;379;49.022;12.148;2024-02-16T13:36:59;4.17;;;2.80;;
791;SDS011;379;49.022;12.148;2024-02-16T13:39:26;2.57;;;2.37;;
791;SDS011;379;49.022;12.148;2024-02-16T13:41:53;4.77;;;3.20;;
791;SDS011;379;49.022;12.148;2024-02-16T13:44:22;4.53;;;3.00;;
791;SDS011;379;49.022;12.148;2024-02-16T13:46:50;4.90;;;3.63;;
791;SDS011;379;49.022;12.148;2024-02-16T13:49:17;3.60;;;3.30;;
791;SDS011;379;49.022;12.148;2024-02-16T13:51:43;2.87;;;2.67;;
791;SDS011;379;49.022;12.148;2024-02-16T13:54:11;4.37;;;2.13;;
791;SDS011;379;49.022;12.148;2024-02-16T13:56:38;6.30;;;3.33;;
791;SDS011;379;49.022;12.148;2024-02-16T13:59:05;4.67;;;3.60;;
791;SDS011;379;49.022;12.148;2024-02-16T14:01:33;3.70;;;3.17;;
791;SDS011;379;49.022;12.148;2024-02-16T14:04:01;5.83;;;2.83;;
791;SDS011;379;49.022;12.148;2024-02-16T14:06:29;6.50;;;3.83;;
791;SDS011;379;49.022;12.148;2024-02-16T14:08:56;3.10;;;2.70;;
791;SDS011;379;49.022;12.148;2024-02-16T14:11:23;4.77;;;3.10;;
791;SDS011;379;49.022;12.148;2024-02-16T14:13:50;5.30;;;2.70;;
791;SDS011;379;49.022;12.148;2024-02-16T14:16:17;5.57;;;3.87;;
791;SDS011;379;49.022;12.148;2024-02-16T14:18:44;4.50;;;3.13;;
791;SDS011;379;49.022;12.148;2024-02-16T14:21:14;3.40;;;3.10;;
791;SDS011;379;49.022;12.148;2024-02-16T14:23:41;4.10;;;2.67;;
791;SDS011;379;49.022;12.148;2024-02-16T14:26:08;5.07;;;4.30;;
791;SDS011;379;49.022;12.148;2024-02-16T14:28:36;4.30;;;3.70;;
791;SDS011;379;49.022;12.148;2024-02-16T14:31:03;3.70;;;3.27;;
791;SDS011;379;49.022;12.148;2024-02-16T14:33:32;4.07;;;2.87;;
791;SDS011;379;49.022;12.148;2024-02-16T14:35:59;6.70;;;4.30;;
791;SDS011;379;49.022;12.148;2024-02-16T14:38:27;12.00;;;4.37;;
791;SDS011;379;49.022;12.148;2024-02-16T14:40:54;4.97;;;3.03;;
791;SDS011;379;49.022;12.148;2024-02-16T14:43:21;4.50;;;2.63;;
791;SDS011;379;49.022;12.148;2024-02-16T14:45:48;8.50;;;5.03;;
791;SDS011;379;49.022;12.148;2024-02-16T14:48:15;4.80;;;3.37;;
791;SDS011;379;49.022;12.148;2024-02-16T14:50:42;4.67;;;3.80;;
791;SDS011;379;49.022;12.148;2024-02-16T14:53:08;6.93;;;5.10;;
791;SDS011;379;49.022;12.148;2024-02-16T14:55:36;3.17;;;2.90;;
791;SDS011;379;49.022;12.148;2024-02-16T14:58:03;4.17;;;3.77;;
791;SDS011;379;49.022;12.148;2024-02-16T15:00:30;6.10;;;3.43;;
791;SDS011;379;49.022;12.148;2024-02-16T15:02:57;4.10;;;2.10;;
791;SDS011;379;49.022;12.148;2024-02-16T15:05:24;5.10;;;3.87;;
791;SDS011;379;49.022;12.148;2024-02-16T15:07:50;5.00;;;2.90;;
791;SDS011;379;49.022;12.148;2024-02-16T15:10:17;4.30;;;3.47;;
791;SDS011;379;49.022;12.148;2024-02-16T15:12:46;6.70;;;4.13;;
791;SDS011;379;49.022;12.148;2024-02-16T15:15:12;4.50;;;3.37;;
791;SDS011;379;49.022;12.148;2024-02-16T15:17:39;7.87;;;4.07;;
791;SDS011;379;49.022;12.148;2024-02-16T15:20:07;4.57;;;3.67;;
791;SDS011;379;49.022;12.148;2024-02-16T15:22:35;8.73;;;4.63;;
791;SDS011;379;49.022;12.148;2024-02-16T15:25:02;5.10;;;2.50;;
791;SDS011;379;49.022;12.148;2024-02-16T15:27:29;3.60;;;2.93;;
791;SDS011;379;49.022;12.148;2024-02-16T15:29:57;5.00;;;3.60;;